In Rescue
 
Open Full Screen Window  High Contrast Mode
Wind Gusting 18 knots
10
April 20, 2024 8:46 AM CDT
Weather Information
Wind Direction
  300 °
Wind Speed
  10 kt (12 mph)
Wind Gust
  18 kt (21 mph)
Altimeter
30.26 in
Visibility
10 SM
Temperature
00° C
32° F
Dewpoint
-05° C
23° F
Humidity
69%
Sky Condition
Overcast @ 2,400 ft
MVFR

METAR KLXL 201346Z AUTO 30010G18KT 10SM OVC024 00/M05 A3026 RMK AO2

FAA Disclaimer: The data displayed is for advisory purposes only and is not to be used for flight planning or operations.